Time;durP1;ratioP1;P1;durP2;ratioP2;P2;SDS_P1;SDS_P2;PMS_P1;PMS_P2;Temp;Humidity;BMP_temperature;BMP_pressure;BME280_temperature;BME280_humidity;BME280_pressure;Samples;Min_cycle;Max_cycle;Signal;HPM_P1;HPM_P2
2023/07/21 05:02:08;;;;;;;3.83;1.58;;;18.00;81.30;;;;;;5547292;23;20249;-75
2023/07/21 05:04:34;;;;;;;5.95;1.85;;;18.20;80.90;;;;;;4927353;29;20095;-74
2023/07/21 05:07:01;;;;;;;8.18;4.55;;;18.30;80.50;;;;;;4929412;29;20217;-74
2023/07/21 05:09:27;;;;;;;8.70;5.10;;;18.30;80.10;;;;;;4928304;29;20028;-75
2023/07/21 05:11:54;;;;;;;6.20;2.80;;;18.40;80.10;;;;;;4928105;29;20032;-73
2023/07/21 05:14:46;;;;;;;6.03;2.58;;;18.40;80.10;;;;;;4927114;29;20059;-74
2023/07/21 05:17:38;;;;;;;6.65;3.58;;;18.40;80.10;;;;;;4928512;29;20040;-74
2023/07/21 05:20:25;;;;;;;5.30;1.98;;;18.50;80.00;;;;;;4909471;29;20051;-75
2023/07/21 05:23:00;;;;;;;4.18;2.10;;;18.60;80.00;;;;;;4909525;29;20028;-75
2023/07/21 05:25:41;;;;;;;4.45;2.40;;;18.60;79.80;;;;;;4910394;29;20332;-75
2023/07/21 05:28:08;;;;;;;4.65;1.92;;;18.70;79.80;;;;;;4923930;29;20036;-74
2023/07/21 05:30:35;;;;;;;4.45;2.00;;;18.70;79.70;;;;;;4942853;29;20028;-74
2023/07/21 05:33:01;;;;;;;4.25;2.03;;;18.70;79.90;;;;;;4927827;29;20062;-75
2023/07/21 05:35:29;;;;;;;4.97;2.20;;;18.90;79.60;;;;;;4928147;29;20035;-76
2023/07/21 05:38:01;;;;;;;5.32;2.38;;;19.00;79.10;;;;;;4928154;29;20055;-74
2023/07/21 05:40:28;;;;;;;5.60;2.08;;;19.10;78.20;;;;;;4927988;29;20040;-75
2023/07/21 05:42:53;;;;;;;5.07;2.10;;;19.20;78.20;;;;;;4927599;29;20036;-75
2023/07/21 05:45:19;;;;;;;4.70;2.25;;;19.20;77.90;;;;;;4926003;29;20032;-74
2023/07/21 05:47:46;;;;;;;4.80;2.00;;;19.30;78.00;;;;;;4930388;29;20024;-74
2023/07/21 05:50:12;;;;;;;4.88;2.38;;;19.30;77.70;;;;;;4927790;29;20285;-73
2023/07/21 05:52:44;;;;;;;7.05;1.75;;;19.10;77.90;;;;;;4927287;29;20024;-78
2023/07/21 05:55:20;;;;;;;7.13;2.00;;;19.10;78.50;;;;;;4927225;29;20036;-75
2023/07/21 05:57:46;;;;;;;5.15;2.30;;;19.30;78.50;;;;;;4939270;29;20016;-76
2023/07/21 06:00:14;;;;;;;4.43;1.63;;;19.50;78.30;;;;;;4928244;29;20047;-74
2023/07/21 06:02:44;;;;;;;6.22;2.10;;;19.60;77.70;;;;;;4936172;29;20079;-74
2023/07/21 06:05:12;;;;;;;5.13;2.03;;;19.80;76.60;;;;;;4926756;29;20043;-76
2023/07/21 06:07:56;;;;;;;5.63;2.55;;;19.90;76.10;;;;;;4927698;29;20281;-76
2023/07/21 06:10:42;;;;;;;6.70;2.45;;;20.10;75.80;;;;;;4907910;29;20044;-75
2023/07/21 06:13:21;;;;;;;5.28;1.98;;;20.30;75.10;;;;;;4927272;29;20031;-74
2023/07/21 06:15:58;;;;;;;3.05;1.63;;;20.50;74.80;;;;;;4927488;29;20031;-75
2023/07/21 06:18:35;;;;;;;6.15;2.55;;;20.70;74.20;;;;;;4942846;29;20326;-75
2023/07/21 06:21:04;;;;;;;6.15;2.15;;;21.00;73.80;;;;;;4927890;29;20100;-74
2023/07/21 06:23:30;;;;;;;7.38;2.40;;;20.90;73.50;;;;;;4911300;29;20040;-74
2023/07/21 06:25:55;;;;;;;4.63;2.30;;;20.90;73.10;;;;;;4926943;29;20047;-74
2023/07/21 06:28:21;;;;;;;4.82;2.25;;;20.80;73.10;;;;;;4922847;29;20337;-74
2023/07/21 06:30:48;;;;;;;5.45;2.20;;;20.80;73.80;;;;;;4942215;29;20226;-74
2023/07/21 06:33:34;;;;;;;5.07;2.15;;;21.10;73.70;;;;;;4925831;29;20036;-74
2023/07/21 06:36:20;;;;;;;7.30;2.33;;;21.50;72.30;;;;;;4927822;29;20067;-75
2023/07/21 06:39:05;;;;;;;8.27;2.97;;;21.60;71.70;;;;;;4927222;29;20051;-75
2023/07/21 06:42:07;;;;;;;5.80;2.65;;;21.60;71.90;;;;;;4917898;29;20040;-75
2023/07/21 06:45:03;;;;;;;10.65;3.05;;;21.60;72.00;;;;;;4892288;29;20041;-73
2023/07/21 06:47:42;;;;;;;5.88;2.30;;;21.90;71.60;;;;;;4926240;29;20032;-73
2023/07/21 06:50:29;;;;;;;5.78;2.22;;;22.00;71.00;;;;;;4913769;29;20035;-73
2023/07/21 06:52:54;;;;;;;6.43;1.90;;;22.20;70.40;;;;;;4941620;29;20218;-73
2023/07/21 06:55:22;;;;;;;8.25;2.30;;;22.20;70.20;;;;;;4926370;29;20099;-74
2023/07/21 06:57:47;;;;;;;6.80;2.00;;;22.30;69.90;;;;;;4927025;29;20028;-74
2023/07/21 07:00:14;;;;;;;7.53;2.05;;;22.20;69.80;;;;;;5297371;23;20056;-73
2023/07/21 07:02:40;;;;;;;5.20;2.10;;;22.20;70.00;;;;;;4914793;29;20108;-73
2023/07/21 07:05:06;;;;;;;6.32;2.00;;;22.10;70.30;;;;;;4918709;29;20365;-73
2023/07/21 07:07:32;;;;;;;4.97;2.05;;;22.30;70.00;;;;;;4923537;29;20071;-72
2023/07/21 07:09:57;;;;;;;4.22;2.20;;;22.60;68.50;;;;;;4923210;29;20044;-73
2023/07/21 07:12:23;;;;;;;6.43;2.22;;;22.90;67.80;;;;;;4916294;29;20313;-73
2023/07/21 07:14:49;;;;;;;4.95;2.00;;;23.20;67.30;;;;;;4907303;29;20047;-73
2023/07/21 07:17:14;;;;;;;5.50;1.42;;;23.40;66.90;;;;;;4919617;29;20092;-74
2023/07/21 07:19:40;;;;;;;6.07;2.10;;;23.50;65.10;;;;;;4926204;29;20036;-74
2023/07/21 07:22:09;;;;;;;4.05;1.30;;;23.60;65.50;;;;;;4925829;29;20099;-73
2023/07/21 07:24:37;;;;;;;4.25;2.00;;;23.50;64.00;;;;;;4927026;29;20067;-72
2023/07/21 07:27:03;;;;;;;3.90;1.30;;;23.50;65.20;;;;;;4926732;29;20035;-73
2023/07/21 07:29:28;;;;;;;4.00;1.40;;;23.50;63.50;;;;;;4926934;29;20306;-72
2023/07/21 07:31:55;;;;;;;7.60;1.50;;;23.50;63.50;;;;;;4926600;29;20039;-72
2023/07/21 07:34:20;;;;;;;2.75;1.00;;;23.50;63.20;;;;;;4917400;29;20099;-71
2023/07/21 07:36:46;;;;;;;7.28;1.15;;;23.50;62.50;;;;;;4906335;29;20055;-70
2023/07/21 07:39:12;;;;;;;4.30;1.20;;;23.50;63.00;;;;;;4907934;29;20068;-72
2023/07/21 07:41:38;;;;;;;4.28;1.20;;;23.40;62.80;;;;;;4908303;29;20409;-72
2023/07/21 07:44:06;;;;;;;3.33;1.23;;;23.50;62.60;;;;;;4907620;29;20107;-71
2023/07/21 07:46:32;;;;;;;4.23;1.27;;;23.50;62.60;;;;;;4907707;29;20035;-75
2023/07/21 07:48:58;;;;;;;7.53;1.25;;;23.40;62.40;;;;;;4920476;29;20314;-69
2023/07/21 07:51:24;;;;;;;11.70;5.57;;;23.50;62.40;;;;;;4936555;29;20031;-69
2023/07/21 07:53:52;;;;;;;3.00;1.00;;;23.80;63.70;;;;;;4939217;29;20393;-70
2023/07/21 07:56:18;;;;;;;4.63;1.42;;;24.10;61.90;;;;;;4928967;29;20064;-70
2023/07/21 07:58:44;;;;;;;6.45;1.40;;;24.40;60.80;;;;;;4944942;29;20332;-71
2023/07/21 08:01:13;;;;;;;3.28;1.10;;;24.80;61.00;;;;;;4918010;29;20060;-69
2023/07/21 08:03:43;;;;;;;3.47;1.45;;;25.00;60.00;;;;;;4914167;29;20039;-71
2023/07/21 08:06:10;;;;;;;5.00;1.25;;;24.80;60.00;;;;;;4906922;29;20041;-71
2023/07/21 08:08:36;;;;;;;3.40;1.10;;;24.80;60.10;;;;;;4906925;29;20036;-70
2023/07/21 08:11:03;;;;;;;3.35;0.90;;;24.90;60.20;;;;;;4905483;29;20052;-70
2023/07/21 08:13:28;;;;;;;8.32;1.30;;;24.80;60.40;;;;;;4889725;29;20204;-69
2023/07/21 08:21:19;;;;;;;3.00;1.13;;;24.10;61.90;;;;;;5165428;23;20174;-73
2023/07/21 08:23:46;;;;;;;5.80;1.42;;;24.10;61.50;;;;;;4912980;29;20048;-72
2023/07/21 08:26:12;;;;;;;3.33;1.15;;;24.00;61.20;;;;;;4931069;29;20035;-71
2023/07/21 08:28:37;;;;;;;4.50;1.13;;;24.00;61.30;;;;;;4923896;29;20035;-71
2023/07/21 08:31:03;;;;;;;5.28;1.17;;;24.00;61.60;;;;;;4912764;29;20211;-74
2023/07/21 08:33:29;;;;;;;5.68;1.50;;;24.10;61.50;;;;;;4912951;29;20381;-71
2023/07/21 11:45:34;;;;;;;4.65;1.42;;;29.40;50.40;;;;;;4885610;29;20055;-74
2023/07/21 11:48:19;;;;;;;3.22;1.10;;;29.10;50.60;;;;;;4887939;29;20033;-71
2023/07/21 11:50:53;;;;;;;3.85;0.90;;;28.90;50.50;;;;;;4888594;29;20076;-73
2023/07/21 11:53:20;;;;;;;2.78;1.10;;;28.60;50.60;;;;;;4888664;29;20028;-70
2023/07/21 11:55:46;;;;;;;1.95;1.08;;;28.20;51.30;;;;;;4888523;29;20025;-73
2023/07/21 11:58:12;;;;;;;1.95;0.95;;;27.90;52.10;;;;;;4888393;29;20081;-71
2023/07/21 12:00:38;;;;;;;7.70;1.08;;;27.50;52.00;;;;;;4888512;29;20063;-73
2023/07/21 12:03:05;;;;;;;2.20;1.08;;;27.30;52.50;;;;;;4888651;29;20052;-73
2023/07/21 12:05:37;;;;;;;5.03;1.40;;;27.10;52.80;;;;;;4889057;29;20144;-73
2023/07/21 12:08:06;;;;;;;5.07;1.30;;;27.20;53.10;;;;;;4888232;29;20040;-71
2023/07/21 12:10:32;;;;;;;3.38;1.08;;;27.10;53.40;;;;;;4888566;29;20243;-72
2023/07/21 12:12:58;;;;;;;3.20;1.15;;;27.00;53.10;;;;;;4888433;29;20033;-74
2023/07/21 12:15:24;;;;;;;2.03;1.00;;;26.90;53.50;;;;;;4888835;29;20037;-71
2023/07/21 12:17:50;;;;;;;3.17;1.00;;;26.90;53.60;;;;;;4888514;29;20045;-72
2023/07/21 12:20:17;;;;;;;1.67;0.90;;;26.90;53.70;;;;;;4888253;29;20025;-71
2023/07/21 12:22:43;;;;;;;3.03;1.10;;;26.90;53.40;;;;;;4888814;29;20085;-73
2023/07/21 12:25:10;;;;;;;3.25;1.10;;;27.00;53.60;;;;;;4888283;29;20041;-70
2023/07/21 12:27:36;;;;;;;3.67;1.20;;;27.00;53.60;;;;;;4888616;29;20123;-72
2023/07/21 12:30:09;;;;;;;2.97;0.90;;;26.70;53.80;;;;;;4888195;29;20202;-74
2023/07/21 12:32:34;;;;;;;2.45;0.90;;;26.70;54.10;;;;;;4888614;29;20310;-73
2023/07/21 12:35:00;;;;;;;3.88;1.33;;;26.80;54.10;;;;;;4888253;29;20045;-72
2023/07/21 12:37:26;;;;;;;2.20;1.20;;;26.60;54.00;;;;;;4888524;29;20021;-72
2023/07/21 12:39:52;;;;;;;2.40;1.00;;;26.30;56.40;;;;;;4888641;29;20033;-72
2023/07/21 12:42:18;;;;;;;2.50;1.08;;;25.90;58.40;;;;;;4887482;29;20355;-73
2023/07/21 12:44:44;;;;;;;2.13;1.13;;;25.70;59.00;;;;;;4871370;29;20049;-73
2023/07/21 12:47:10;;;;;;;2.00;1.00;;;25.50;59.40;;;;;;4868378;29;20037;-72
2023/07/21 12:49:36;;;;;;;2.83;1.20;;;25.60;59.50;;;;;;4869708;29;20330;-73
2023/07/21 12:52:02;;;;;;;3.95;0.95;;;25.50;59.00;;;;;;4869733;29;20038;-72
2023/07/21 12:54:28;;;;;;;4.82;1.67;;;25.60;58.80;;;;;;4869528;29;20284;-73
2023/07/21 12:56:54;;;;;;;6.00;1.10;;;25.90;58.00;;;;;;4870127;29;20033;-72
2023/07/21 12:59:19;;;;;;;2.10;1.00;;;25.70;57.30;;;;;;4869607;29;20189;-72
2023/07/21 13:01:45;;;;;;;3.90;1.20;;;25.80;57.60;;;;;;4869635;29;20036;-72
2023/07/21 13:04:12;;;;;;;3.95;1.40;;;26.10;56.50;;;;;;4868289;29;20041;-72
2023/07/21 13:06:38;;;;;;;3.20;0.90;;;26.30;56.80;;;;;;4870413;29;20052;-73
2023/07/21 13:09:04;;;;;;;2.85;1.10;;;26.20;55.90;;;;;;4872819;29;20021;-70
2023/07/21 13:11:30;;;;;;;2.72;1.10;;;26.10;55.80;;;;;;4872888;29;20037;-72
2023/07/21 13:13:56;;;;;;;3.55;1.10;;;26.20;56.00;;;;;;4873035;29;20052;-73
2023/07/21 13:16:22;;;;;;;2.15;1.00;;;26.10;55.70;;;;;;4873439;29;20319;-71
2023/07/21 13:18:48;;;;;;;2.75;1.02;;;26.00;56.00;;;;;;4872298;29;20048;-72
2023/07/21 13:21:13;;;;;;;3.90;1.20;;;25.90;56.10;;;;;;4872590;29;20105;-73
2023/07/21 13:23:39;;;;;;;6.30;1.85;;;25.90;56.30;;;;;;4872959;29;20033;-72
2023/07/21 13:26:05;;;;;;;2.65;1.27;;;25.80;56.20;;;;;;4872560;29;20033;-71
2023/07/21 13:28:30;;;;;;;3.47;1.10;;;25.60;56.70;;;;;;4872611;29;20034;-73
2023/07/21 13:30:56;;;;;;;2.95;1.15;;;25.30;57.30;;;;;;4872661;29;20034;-70
2023/07/21 13:33:22;;;;;;;3.13;1.30;;;24.90;58.60;;;;;;4872677;29;20061;-72
2023/07/21 13:35:50;;;;;;;2.17;1.02;;;24.70;60.30;;;;;;4873189;29;20314;-72
2023/07/21 13:38:15;;;;;;;4.10;1.08;;;24.60;60.60;;;;;;4872511;29;20092;-73
2023/07/21 13:40:41;;;;;;;4.18;1.55;;;24.60;60.50;;;;;;4887124;29;20315;-69
2023/07/21 13:43:09;;;;;;;3.25;1.20;;;24.80;59.90;;;;;;4872079;29;20053;-72
2023/07/21 13:45:35;;;;;;;;;;;24.90;59.70;;;;;;4873628;29;20033;-73
2023/07/21 13:48:04;;;;;;;6.10;1.40;;;24.90;60.30;;;;;;4871691;29;19982;-72
2023/07/21 13:50:30;;;;;;;2.40;1.05;;;24.70;61.20;;;;;;4873002;29;20313;-71
2023/07/21 13:52:56;;;;;;;5.55;1.48;;;24.60;61.90;;;;;;4872786;29;20042;-71
2023/07/21 13:55:26;;;;;;;4.80;1.40;;;24.30;62.80;;;;;;4855628;29;20038;-72
2023/07/21 13:57:52;;;;;;;5.93;1.50;;;24.00;63.40;;;;;;4872833;29;20033;-72
2023/07/21 14:00:19;;;;;;;2.63;0.93;;;23.60;65.10;;;;;;4871240;29;20037;-71
2023/07/21 14:02:47;;;;;;;4.65;1.10;;;23.40;65.90;;;;;;4872078;29;20272;-74
2023/07/21 14:05:16;;;;;;;2.70;0.85;;;23.10;66.90;;;;;;4872217;29;20029;-71
2023/07/21 14:07:42;;;;;;;;;;;22.70;67.30;;;;;;4872774;29;20101;-73
2023/07/21 14:10:11;;;;;;;2.95;1.20;;;22.10;67.70;;;;;;4872153;29;19933;-71
2023/07/21 14:12:36;;;;;;;3.47;1.35;;;21.80;68.90;;;;;;4872277;29;20280;-70
2023/07/21 14:15:03;;;;;;;3.35;1.08;;;21.60;69.20;;;;;;4872016;29;20041;-72
2023/07/21 14:17:29;;;;;;;1.95;0.93;;;21.50;69.80;;;;;;4871610;29;20032;-72
2023/07/21 14:19:54;;;;;;;2.40;1.17;;;21.40;73.50;;;;;;4872516;29;20022;-72
2023/07/21 14:22:20;;;;;;;2.92;1.35;;;21.10;74.60;;;;;;4871889;29;20321;-70
2023/07/21 14:24:49;;;;;;;4.38;1.30;;;20.90;75.50;;;;;;4872058;29;20033;-71
2023/07/21 14:27:15;;;;;;;2.92;0.95;;;20.70;76.40;;;;;;4870533;29;20057;-73
2023/07/21 14:29:40;;;;;;;3.20;1.30;;;20.70;75.70;;;;;;4871847;29;20073;-74
2023/07/21 14:32:06;;;;;;;2.35;1.08;;;20.60;75.40;;;;;;4871179;29;20100;-74
2023/07/21 14:34:32;;;;;;;2.58;1.20;;;20.60;75.70;;;;;;4871715;29;20373;-73
2023/07/21 14:36:58;;;;;;;2.60;1.52;;;20.50;76.10;;;;;;4870866;29;20104;-74
2023/07/21 14:39:23;;;;;;;2.58;0.90;;;20.50;76.30;;;;;;4871041;29;20096;-74
2023/07/21 14:41:49;;;;;;;3.17;1.45;;;20.30;76.50;;;;;;4871967;29;20044;-74
2023/07/21 14:44:15;;;;;;;3.28;1.00;;;20.00;81.40;;;;;;4870023;29;20108;-74
2023/07/21 14:46:41;;;;;;;3.22;1.17;;;19.60;83.10;;;;;;4885710;29;20036;-72
2023/07/21 14:49:06;;;;;;;4.50;1.50;;;19.30;85.60;;;;;;4871425;29;20033;-73
2023/07/21 14:51:32;;;;;;;9.60;1.63;;;18.80;90.60;;;;;;4870541;29;20026;-76
2023/07/21 14:53:58;;;;;;;7.80;1.30;;;18.20;93.60;;;;;;5325709;23;20056;-76
2023/07/21 14:56:24;;;;;;;5.55;1.63;;;17.70;94.20;;;;;;4921896;29;20099;-76
2023/07/21 14:58:50;;;;;;;2.95;1.38;;;17.30;95.30;;;;;;4925108;29;20032;-76
2023/07/21 15:40:49;;;;;;;2.92;1.42;;;18.20;96.90;;;;;;4898485;29;19974;-73
2023/07/21 15:43:15;;;;;;;4.55;1.40;;;18.40;97.50;;;;;;4889215;29;20112;-71
2023/07/21 15:45:41;;;;;;;4.00;1.52;;;18.60;97.80;;;;;;4889474;29;20025;-71
2023/07/21 15:48:08;;;;;;;3.28;1.63;;;18.90;97.10;;;;;;4889052;29;20045;-72
2023/07/21 15:50:35;;;;;;;3.70;1.52;;;19.20;96.40;;;;;;4889159;29;20292;-71
2023/07/21 15:53:00;;;;;;;3.55;1.50;;;19.50;96.00;;;;;;4889541;29;20029;-73
2023/07/21 15:55:26;;;;;;;3.28;1.45;;;19.70;95.10;;;;;;4888484;29;20035;-71
2023/07/21 15:57:55;;;;;;;3.92;1.65;;;19.90;94.20;;;;;;4872628;29;20040;-73
2023/07/21 16:00:21;;;;;;;2.78;1.65;;;19.80;93.80;;;;;;4889106;29;20028;-74
2023/07/21 16:02:47;;;;;;;3.15;1.33;;;19.70;93.70;;;;;;4888909;29;20025;-71
2023/07/21 16:05:16;;;;;;;3.13;1.85;;;19.80;92.70;;;;;;4888591;29;20109;-72
2023/07/21 16:07:41;;;;;;;;;;;20.10;93.70;;;;;;4889634;29;20314;-72
2023/07/21 16:10:09;;;;;;;3.33;1.60;;;20.30;94.10;;;;;;4888764;29;19948;-75
2023/07/21 16:12:35;;;;;;;2.88;1.45;;;20.40;93.60;;;;;;4888878;29;20226;-73
2023/07/21 16:15:03;;;;;;;2.50;1.48;;;20.50;93.00;;;;;;4889097;29;20033;-74
2023/07/21 16:17:28;;;;;;;4.40;1.77;;;20.60;93.00;;;;;;4888760;29;20041;-73
2023/07/21 16:19:54;;;;;;;3.40;1.40;;;20.50;91.90;;;;;;4872556;29;20337;-71
2023/07/21 16:22:20;;;;;;;3.10;1.67;;;20.30;91.20;;;;;;4888460;29;20037;-72
2023/07/21 16:24:46;;;;;;;4.88;1.60;;;20.30;91.10;;;;;;4872509;29;20342;-74
2023/07/21 16:27:11;;;;;;;2.88;1.50;;;20.50;90.90;;;;;;4888278;29;20087;-73
2023/07/21 16:32:19;;;;;;;3.40;1.40;;;21.60;89.40;;;;;;5384709;23;20048;-72
2023/07/21 16:34:45;;;;;;;4.53;1.92;;;22.10;86.90;;;;;;4925977;29;20044;-72
2023/07/21 16:37:11;;;;;;;3.65;1.42;;;23.20;85.50;;;;;;4925851;29;20102;-75
2023/07/21 16:47:42;;;;;;;2.13;1.23;;;28.30;67.20;;;;;;5163404;23;20044;-72
2023/07/21 16:50:10;;;;;;;3.67;1.70;;;28.10;67.90;;;;;;4923784;29;20024;-71
2023/07/21 16:52:36;;;;;;;3.92;1.40;;;27.90;68.60;;;;;;4930081;29;20032;-73
2023/07/21 16:55:03;;;;;;;2.40;1.10;;;27.00;68.80;;;;;;4929706;29;20055;-73
2023/07/21 16:57:29;;;;;;;2.30;1.13;;;26.80;67.50;;;;;;4929946;29;20052;-72
2023/07/21 17:00:01;;;;;;;2.88;1.08;;;26.30;69.20;;;;;;4929867;29;20032;-74
2023/07/21 17:02:29;;;;;;;3.72;1.35;;;25.70;70.50;;;;;;4917680;29;20032;-72
2023/07/21 17:04:55;;;;;;;2.85;1.13;;;25.70;71.00;;;;;;4929421;29;20035;-72
2023/07/21 17:07:21;;;;;;;2.03;0.88;;;24.60;73.40;;;;;;4929365;29;20036;-72
2023/07/21 17:10:13;;;;;;;2.60;1.30;;;24.10;74.20;;;;;;4929099;29;20113;-74
2023/07/21 17:12:41;;;;;;;2.15;1.15;;;23.50;77.00;;;;;;4929929;29;20028;-76
2023/07/21 17:15:09;;;;;;;2.15;1.02;;;23.40;79.10;;;;;;4928093;29;20039;-74
2023/07/21 17:17:35;;;;;;;2.72;1.38;;;23.50;78.50;;;;;;4929658;29;20050;-73
2023/07/21 17:20:01;;;;;;;2.50;1.10;;;23.40;77.50;;;;;;4928544;29;20067;-70
2023/07/21 17:22:26;;;;;;;3.53;1.08;;;23.60;76.60;;;;;;4929102;29;20258;-70
2023/07/21 17:24:55;;;;;;;2.70;1.10;;;24.20;75.80;;;;;;4929775;29;20332;-70
2023/07/21 17:27:22;;;;;;;3.10;1.05;;;25.20;72.60;;;;;;4928969;29;20020;-72
2023/07/21 17:29:47;;;;;;;3.25;1.15;;;26.60;70.20;;;;;;4929800;29;20044;-71
2023/07/21 17:32:13;;;;;;;3.08;1.10;;;26.80;67.90;;;;;;4929066;29;20047;-72
2023/07/21 17:34:42;;;;;;;2.88;0.93;;;27.60;67.60;;;;;;4912291;29;20043;-70
2023/07/21 17:37:33;;;;;;;2.05;1.00;;;28.40;66.30;;;;;;4929008;29;20108;-70
2023/07/21 17:39:59;;;;;;;2.25;1.33;;;29.40;64.90;;;;;;4929071;29;20059;-71
2023/07/21 17:42:25;;;;;;;3.88;1.10;;;28.80;64.20;;;;;;4928751;29;20047;-70
2023/07/21 17:44:54;;;;;;;3.35;1.20;;;28.60;64.20;;;;;;4929391;29;20103;-72
2023/07/21 17:47:19;;;;;;;3.45;1.20;;;28.80;64.90;;;;;;4917877;29;20044;-71
2023/07/21 17:49:45;;;;;;;2.90;1.10;;;28.70;64.90;;;;;;4908884;29;20036;-73
2023/07/21 17:52:14;;;;;;;3.17;1.20;;;28.40;64.70;;;;;;4909198;29;20091;-72
2023/07/21 17:54:39;;;;;;;2.30;1.15;;;28.30;65.60;;;;;;4909820;29;20048;-72
2023/07/21 17:57:06;;;;;;;2.28;1.00;;;28.40;64.40;;;;;;4909391;29;20036;-74
2023/07/21 17:59:31;;;;;;;1.98;1.02;;;27.40;65.90;;;;;;4909427;29;20067;-71
2023/07/21 18:01:57;;;;;;;2.13;0.95;;;27.10;66.80;;;;;;4910420;29;20025;-73
2023/07/21 18:04:23;;;;;;;2.10;1.00;;;27.40;66.60;;;;;;4909351;29;20079;-73
2023/07/21 18:06:49;;;;;;;2.88;1.13;;;27.10;66.50;;;;;;4910206;29;20072;-73
2023/07/21 18:09:15;;;;;;;2.67;1.40;;;26.40;67.70;;;;;;4924461;29;20068;-73
2023/07/21 18:11:40;;;;;;;1.92;1.02;;;26.30;69.00;;;;;;4910275;29;20056;-72
2023/07/21 18:14:09;;;;;;;2.55;1.15;;;25.70;69.90;;;;;;4908932;29;20076;-72
2023/07/21 18:16:35;;;;;;;2.80;1.27;;;24.70;72.10;;;;;;4909305;29;20326;-71
2023/07/21 18:19:01;;;;;;;2.60;1.15;;;24.10;74.00;;;;;;4909434;29;20040;-70
2023/07/21 18:21:26;;;;;;;2.47;1.15;;;23.90;73.80;;;;;;4909227;29;20032;-71
2023/07/21 18:23:52;;;;;;;3.90;1.42;;;23.70;75.20;;;;;;4909726;29;20040;-71
2023/07/21 18:26:18;;;;;;;3.58;1.23;;;23.30;76.10;;;;;;4908962;29;20365;-74
2023/07/21 18:28:44;;;;;;;3.17;1.70;;;23.00;77.60;;;;;;4909324;29;20044;-72
2023/07/21 18:31:09;;;;;;;3.22;1.45;;;22.50;79.20;;;;;;4909254;29;20378;-72
2023/07/21 18:33:37;;;;;;;2.40;1.23;;;22.30;80.00;;;;;;4908712;29;20035;-71
2023/07/21 18:36:14;;;;;;;3.40;1.50;;;21.90;79.80;;;;;;4909528;29;20362;-72
2023/07/21 18:38:45;;;;;;;3.63;1.35;;;21.70;81.30;;;;;;4908236;29;20070;-72
2023/07/21 18:41:15;;;;;;;3.05;1.52;;;21.10;82.20;;;;;;4909556;29;20242;-73
2023/07/21 18:43:41;;;;;;;2.45;1.45;;;20.90;82.90;;;;;;4909458;29;20036;-71
2023/07/21 18:46:11;;;;;;;4.72;1.60;;;20.70;83.90;;;;;;4908979;29;20036;-72
2023/07/21 18:48:37;;;;;;;3.30;1.73;;;20.50;84.30;;;;;;4908774;29;20373;-70
2023/07/21 18:51:03;;;;;;;4.63;2.13;;;20.30;85.50;;;;;;4908681;29;20055;-71
2023/07/21 18:53:28;;;;;;;4.03;2.00;;;20.20;85.40;;;;;;4908438;29;20032;-72
2023/07/21 18:55:54;;;;;;;3.47;1.58;;;20.00;85.30;;;;;;4908835;29;20049;-73
2023/07/21 18:58:20;;;;;;;4.72;2.67;;;19.90;85.90;;;;;;4908285;29;20032;-71
2023/07/21 19:00:46;;;;;;;5.18;1.70;;;19.90;86.40;;;;;;4908900;29;20056;-71
2023/07/21 19:03:11;;;;;;;4.10;1.77;;;19.80;86.50;;;;;;4908604;29;20068;-72
2023/07/21 19:05:41;;;;;;;3.25;1.60;;;19.80;86.50;;;;;;4907428;29;20041;-71
2023/07/21 19:08:07;;;;;;;3.78;1.90;;;19.70;86.50;;;;;;4908811;29;20033;-71
2023/07/21 19:10:33;;;;;;;4.22;1.88;;;19.60;87.20;;;;;;4908226;29;20043;-71
2023/07/21 19:12:58;;;;;;;3.58;1.50;;;19.50;87.90;;;;;;4908786;29;20092;-69
2023/07/21 19:15:24;;;;;;;3.20;1.70;;;19.50;87.80;;;;;;4906826;29;20052;-70
2023/07/21 19:17:50;;;;;;;4.78;2.28;;;19.40;88.60;;;;;;4908453;29;20045;-70
2023/07/21 19:20:16;;;;;;;4.70;2.10;;;19.30;89.20;;;;;;4908141;29;20043;-72
2023/07/21 19:22:42;;;;;;;4.45;2.00;;;19.20;89.90;;;;;;4908546;29;20103;-71
2023/07/21 19:25:32;;;;;;;4.88;2.20;;;19.10;90.30;;;;;;4905402;29;20039;-72
2023/07/21 19:28:24;;;;;;;3.88;1.60;;;18.90;90.70;;;;;;4937333;29;20294;-72
2023/07/21 19:31:18;;;;;;;2.60;1.40;;;18.70;90.90;;;;;;4943830;29;20055;-70
2023/07/21 19:34:09;;;;;;;3.20;1.60;;;18.60;91.10;;;;;;4944243;29;20117;-70
2023/07/21 19:37:00;;;;;;;5.22;2.20;;;18.50;91.20;;;;;;4945176;29;20030;-71
2023/07/21 19:39:51;;;;;;;4.80;1.90;;;18.40;91.20;;;;;;4945915;29;20038;-71
2023/07/21 19:42:41;;;;;;;4.80;1.70;;;18.20;91.30;;;;;;4945260;29;20067;-70
2023/07/21 19:45:40;;;;;;;4.78;2.47;;;18.20;91.50;;;;;;4945081;29;20131;-69
2023/07/21 20:00:00;;;;;;;2.88;1.52;;;18.00;91.40;;;;;;4963533;28;20413;-71
2023/07/21 20:02:26;;;;;;;2.97;1.70;;;17.90;91.50;;;;;;4956414;29;20249;-72
2023/07/21 20:05:17;;;;;;;3.72;1.60;;;17.90;91.50;;;;;;4962867;29;20252;-70
2023/07/21 20:07:43;;;;;;;2.83;1.50;;;17.80;91.60;;;;;;4958975;29;20039;-71
2023/07/21 20:10:36;;;;;;;3.92;1.80;;;17.80;91.70;;;;;;4944522;29;20034;-71
2023/07/21 20:13:01;;;;;;;3.83;2.00;;;17.70;91.80;;;;;;4945453;29;20035;-72
2023/07/21 20:15:28;;;;;;;5.38;1.80;;;17.70;91.80;;;;;;4944476;29;20043;-71
2023/07/21 20:17:54;;;;;;;4.35;2.22;;;17.60;92.10;;;;;;4943855;29;20225;-71
2023/07/21 20:20:19;;;;;;;4.38;2.22;;;17.50;92.40;;;;;;4944731;29;20023;-73
2023/07/21 20:22:45;;;;;;;4.68;2.05;;;17.50;92.50;;;;;;4945665;29;20059;-71
2023/07/21 20:25:11;;;;;;;4.68;2.50;;;17.40;92.80;;;;;;4944213;29;20058;-71
2023/07/21 20:27:37;;;;;;;4.35;2.42;;;17.40;93.10;;;;;;4944856;29;20030;-73
2023/07/21 20:30:04;;;;;;;5.18;3.28;;;17.30;93.20;;;;;;4944126;29;20036;-72
2023/07/21 20:32:30;;;;;;;5.00;2.40;;;17.30;93.50;;;;;;4944886;29;20035;-70
2023/07/21 20:34:55;;;;;;;6.63;2.00;;;17.20;93.40;;;;;;4944071;29;20046;-71
2023/07/21 20:37:21;;;;;;;5.68;3.28;;;17.20;92.70;;;;;;4944761;29;20317;-71
2023/07/21 20:39:47;;;;;;;6.50;3.67;;;17.20;93.10;;;;;;4945430;29;20071;-71
2023/07/21 20:42:13;;;;;;;4.68;2.50;;;17.20;93.30;;;;;;4945156;29;20027;-71
2023/07/21 20:44:38;;;;;;;5.65;2.80;;;17.20;93.40;;;;;;4944317;29;20118;-72
2023/07/21 20:47:04;;;;;;;4.30;2.55;;;17.20;93.40;;;;;;4943492;29;20265;-72
2023/07/21 20:49:30;;;;;;;4.90;2.70;;;17.10;93.20;;;;;;4944768;29;20040;-73
2023/07/21 20:51:56;;;;;;;4.72;2.72;;;17.10;93.80;;;;;;4928153;29;20047;-71
2023/07/21 20:54:23;;;;;;;5.32;2.90;;;17.10;93.90;;;;;;4927834;29;20043;-71
2023/07/21 20:56:48;;;;;;;4.53;2.72;;;17.00;94.20;;;;;;4945010;29;20044;-73
2023/07/21 20:59:14;;;;;;;4.10;2.65;;;17.00;94.30;;;;;;4945092;29;20035;-71
2023/07/21 21:01:40;;;;;;;4.78;2.33;;;16.90;94.50;;;;;;4944573;29;20344;-72
2023/07/21 21:04:05;;;;;;;4.15;2.28;;;16.90;94.80;;;;;;4945028;29;20032;-70
2023/07/21 21:06:31;;;;;;;4.93;2.40;;;16.80;94.60;;;;;;4938291;29;20310;-72
2023/07/21 21:08:57;;;;;;;3.75;1.90;;;16.80;95.00;;;;;;4936099;29;20040;-71
2023/07/21 21:11:23;;;;;;;5.80;2.58;;;16.70;95.00;;;;;;4944492;29;20036;-70
2023/07/21 21:13:48;;;;;;;4.65;2.38;;;16.60;95.30;;;;;;4943953;29;20050;-71
2023/07/21 21:16:14;;;;;;;4.20;2.15;;;16.60;95.40;;;;;;4945050;29;20043;-71
2023/07/21 21:18:40;;;;;;;3.75;2.17;;;16.50;95.60;;;;;;4943579;29;20393;-71
2023/07/21 21:21:05;;;;;;;7.22;3.00;;;16.40;95.60;;;;;;4945264;29;20031;-70
2023/07/21 21:23:34;;;;;;;5.25;2.95;;;16.40;95.60;;;;;;4944392;29;20043;-73
2023/07/21 21:26:00;;;;;;;4.60;2.28;;;16.40;95.90;;;;;;4944633;29;20059;-72
2023/07/21 21:28:26;;;;;;;4.55;2.30;;;16.40;95.90;;;;;;4944238;29;20042;-72
2023/07/21 21:30:59;;;;;;;5.10;2.40;;;16.40;96.20;;;;;;4948274;29;20028;-71
2023/07/21 21:33:26;;;;;;;4.22;2.50;;;16.40;95.90;;;;;;4947622;29;20043;-70
2023/07/21 21:35:54;;;;;;;6.18;3.92;;;16.40;96.20;;;;;;4948052;29;20039;-71
2023/07/21 21:38:20;;;;;;;5.73;3.17;;;16.30;96.40;;;;;;4948418;29;20035;-71
2023/07/21 21:40:45;;;;;;;4.95;2.85;;;16.30;96.60;;;;;;4946388;29;20347;-72
2023/07/21 21:43:11;;;;;;;6.53;3.38;;;16.30;96.60;;;;;;4948250;29;20035;-72
2023/07/21 21:45:43;;;;;;;6.32;3.05;;;16.30;96.90;;;;;;4947006;29;20066;-72
2023/07/21 21:48:08;;;;;;;5.00;2.80;;;16.20;97.20;;;;;;4941011;29;20028;-72
2023/07/21 21:50:34;;;;;;;6.07;3.03;;;16.20;96.40;;;;;;4928634;29;20024;-70
2023/07/21 21:53:00;;;;;;;4.82;2.70;;;16.30;97.20;;;;;;4929041;29;20357;-71
2023/07/21 21:55:25;;;;;;;5.72;2.67;;;16.20;96.60;;;;;;4942909;29;20043;-71
2023/07/21 21:57:54;;;;;;;4.60;2.58;;;16.20;97.00;;;;;;4946949;29;20039;-71
2023/07/21 22:00:20;;;;;;;7.15;3.25;;;16.10;97.00;;;;;;4929078;29;20050;-71
2023/07/21 22:02:46;;;;;;;6.30;2.47;;;16.10;96.70;;;;;;4927555;29;20032;-71
2023/07/21 22:05:12;;;;;;;7.13;4.30;;;16.10;96.70;;;;;;4928521;29;20211;-70
2023/07/21 22:07:38;;;;;;;7.28;3.80;;;16.10;97.60;;;;;;4928134;29;20042;-72
2023/07/21 22:10:04;;;;;;;5.72;2.97;;;16.00;97.60;;;;;;4928500;29;20032;-71
2023/07/21 22:12:30;;;;;;;6.32;3.35;;;16.00;97.90;;;;;;4927854;29;20040;-71